Time;durP1;ratioP1;P1;durP2;ratioP2;P2;SDS_P1;SDS_P2;PMS_P1;PMS_P2;Temp;Humidity;BMP_temperature;BMP_pressure;BME280_temperature;BME280_humidity;BME280_pressure;Samples;Min_cycle;Max_cycle;Signal;HPM_P1;HPM_P2
2022/10/16 00:00:38;;;;;;;;;;;21.40;53.30;;;;;;5065590;28;20359;-64
2022/10/16 00:03:05;;;;;;;;;;;21.40;53.30;;;;;;5050316;28;19929;-64
2022/10/16 00:05:32;;;;;;;;;;;21.40;53.20;;;;;;5078087;28;20607;-64
2022/10/16 00:07:59;;;;;;;;;;;21.40;53.20;;;;;;5071078;28;19920;-64
2022/10/16 00:10:25;;;;;;;;;;;21.30;53.10;;;;;;5065336;28;20339;-64
2022/10/16 00:12:52;;;;;;;;;;;21.30;53.00;;;;;;5063968;28;19925;-64
2022/10/16 00:15:19;;;;;;;;;;;21.30;53.00;;;;;;5066906;28;19956;-64
2022/10/16 00:17:47;;;;;;;;;;;21.30;53.00;;;;;;5069947;28;19924;-64
2022/10/16 00:20:13;;;;;;;;;;;21.30;52.90;;;;;;5084758;28;20003;-64
2022/10/16 00:22:40;;;;;;;;;;;21.30;52.90;;;;;;5068966;28;19927;-63
2022/10/16 00:25:07;;;;;;;;;;;21.40;52.90;;;;;;5068769;28;19956;-64
2022/10/16 00:27:34;;;;;;;;;;;21.30;52.80;;;;;;5067972;28;20263;-64
2022/10/16 00:30:01;;;;;;;;;;;21.30;52.70;;;;;;5069681;28;19968;-63
2022/10/16 00:32:28;;;;;;;;;;;21.30;52.70;;;;;;5068040;28;19921;-64
2022/10/16 00:34:56;;;;;;;;;;;21.30;52.60;;;;;;5069586;28;19928;-64
2022/10/16 00:37:23;;;;;;;;;;;21.30;52.60;;;;;;5059040;28;20013;-64
2022/10/16 00:39:49;;;;;;;;;;;21.30;52.50;;;;;;5065048;28;19955;-64
2022/10/16 00:42:16;;;;;;;;;;;21.30;52.50;;;;;;5081246;28;19963;-64
2022/10/16 00:44:44;;;;;;;;;;;21.30;52.50;;;;;;5067762;28;19999;-64
2022/10/16 00:47:12;;;;;;;;;;;21.30;52.50;;;;;;5054483;28;19947;-64
2022/10/16 00:49:39;;;;;;;;;;;21.30;52.50;;;;;;5083924;28;19986;-64
2022/10/16 00:52:07;;;;;;;;;;;21.30;52.50;;;;;;5070897;28;20270;-64
2022/10/16 00:54:33;;;;;;;;;;;21.30;52.40;;;;;;5058293;28;19970;-64
2022/10/16 00:57:01;;;;;;;;;;;21.30;52.40;;;;;;5079566;28;19952;-64
2022/10/16 00:59:28;;;;;;;;;;;21.30;52.40;;;;;;5069512;28;20438;-64
2022/10/16 01:01:55;;;;;;;;;;;21.30;52.40;;;;;;5067466;28;20362;-64
2022/10/16 01:04:22;;;;;;;;;;;21.30;52.40;;;;;;5069621;28;19964;-64
2022/10/16 01:06:50;;;;;;;;;;;21.30;52.40;;;;;;5073648;28;19963;-64
2022/10/16 01:09:19;;;;;;;;;;;21.30;52.40;;;;;;5064090;28;19924;-64
2022/10/16 01:11:46;;;;;;;;;;;21.30;52.30;;;;;;5076658;28;19997;-64
2022/10/16 01:14:20;;;;;;;;;;;21.30;52.30;;;;;;5064202;28;19928;-64
2022/10/16 01:16:49;;;;;;;;;;;21.30;52.30;;;;;;5068214;28;19982;-64
2022/10/16 01:19:17;;;;;;;;;;;21.20;52.20;;;;;;5068645;28;19987;-64
2022/10/16 01:21:44;;;;;;;;;;;21.30;52.30;;;;;;5068136;28;20021;-64
2022/10/16 01:24:13;;;;;;;;;;;21.30;52.30;;;;;;5068132;28;19967;-64
2022/10/16 01:26:54;;;;;;;;;;;21.30;52.30;;;;;;5071665;28;20372;-64
2022/10/16 01:29:24;;;;;;;;;;;21.30;52.20;;;;;;5052823;28;19924;-64
2022/10/16 01:31:53;;;;;;;;;;;21.30;52.20;;;;;;5071632;28;19978;-64
2022/10/16 01:34:20;;;;;;;;;;;21.20;52.10;;;;;;5088017;28;19920;-64
2022/10/16 01:36:48;;;;;;;;;;;21.20;52.10;;;;;;5061711;28;19956;-64
2022/10/16 01:39:15;;;;;;;;;;;21.20;52.10;;;;;;5084213;28;20019;-64
2022/10/16 01:41:48;;;;;;;;;;;21.20;52.00;;;;;;5072206;28;19956;-64
2022/10/16 01:44:17;;;;;;;;;;;21.20;52.00;;;;;;5086967;28;20444;-64
2022/10/16 01:46:56;;;;;;;;;;;21.20;51.90;;;;;;5069891;28;19924;-65
2022/10/16 01:49:23;;;;;;;;;;;21.20;51.90;;;;;;5070296;28;19920;-65
2022/10/16 01:51:57;;;;;;;;;;;21.20;51.90;;;;;;5070971;28;19920;-64
2022/10/16 01:54:23;;;;;;;;;;;21.20;51.90;;;;;;5085621;28;19956;-64
2022/10/16 01:56:50;;;;;;;;;;;21.20;51.90;;;;;;5079322;28;20367;-64
2022/10/16 01:59:17;;;;;;;;;;;21.20;51.80;;;;;;5085812;28;19925;-64
2022/10/16 02:01:46;;;;;;;;;;;21.20;51.80;;;;;;5070809;28;19920;-64
2022/10/16 02:04:14;;;;;;;;;;;21.20;51.80;;;;;;5087884;28;20343;-65
2022/10/16 02:06:41;;;;;;;;;;;21.20;51.70;;;;;;5080391;28;19968;-64
2022/10/16 02:09:07;;;;;;;;;;;21.20;51.70;;;;;;5064697;28;20345;-64
2022/10/16 02:11:34;;;;;;;;;;;21.20;51.70;;;;;;5071579;28;20307;-65
2022/10/16 02:14:01;;;;;;;;;;;21.20;51.70;;;;;;5070456;28;20007;-64
2022/10/16 02:16:33;;;;;;;;;;;21.20;51.70;;;;;;5083139;28;19925;-65
2022/10/16 02:19:01;;;;;;;;;;;21.20;51.60;;;;;;5063626;28;19932;-64
2022/10/16 02:21:29;;;;;;;;;;;21.20;51.60;;;;;;5066499;28;20023;-65
2022/10/16 02:23:57;;;;;;;;;;;21.20;51.60;;;;;;5055017;28;19921;-64
2022/10/16 02:26:25;;;;;;;;;;;21.20;51.60;;;;;;5067157;28;20391;-64
2022/10/16 02:28:53;;;;;;;;;;;21.20;51.60;;;;;;5080255;28;19920;-64
2022/10/16 02:31:22;;;;;;;;;;;21.20;51.60;;;;;;5086805;28;19979;-65
2022/10/16 02:33:48;;;;;;;;;;;21.20;51.60;;;;;;5068451;28;20022;-65
2022/10/16 02:36:16;;;;;;;;;;;21.20;51.60;;;;;;5086710;28;20043;-64
2022/10/16 02:38:43;;;;;;;;;;;21.20;51.50;;;;;;5086472;28;19921;-64
2022/10/16 02:41:10;;;;;;;;;;;21.20;51.50;;;;;;5085891;28;20003;-64
2022/10/16 02:43:37;;;;;;;;;;;21.20;51.40;;;;;;5086490;28;20027;-64
2022/10/16 02:46:03;;;;;;;;;;;21.20;51.40;;;;;;5087269;28;20015;-65
2022/10/16 02:48:30;;;;;;;;;;;21.20;51.40;;;;;;5082612;28;19921;-64
2022/10/16 02:50:57;;;;;;;;;;;21.20;51.40;;;;;;5068878;28;19924;-65
2022/10/16 02:53:25;;;;;;;;;;;21.20;51.40;;;;;;5051606;28;19975;-64
2022/10/16 02:55:51;;;;;;;;;;;21.20;51.40;;;;;;5053928;28;19971;-64
2022/10/16 02:58:18;;;;;;;;;;;21.20;51.40;;;;;;5068775;28;19930;-64
2022/10/16 03:00:46;;;;;;;;;;;21.20;51.40;;;;;;5086858;28;19924;-65
2022/10/16 03:03:12;;;;;;;;;;;21.20;51.40;;;;;;5085545;28;19925;-64
2022/10/16 03:05:39;;;;;;;;;;;21.20;51.30;;;;;;5070719;28;19959;-64
2022/10/16 03:08:06;;;;;;;;;;;21.20;51.30;;;;;;5085361;28;19920;-64
2022/10/16 03:10:34;;;;;;;;;;;21.20;51.30;;;;;;5069837;28;20035;-64
2022/10/16 03:13:01;;;;;;;;;;;21.20;51.30;;;;;;5055926;28;19964;-64
2022/10/16 03:15:28;;;;;;;;;;;21.20;51.30;;;;;;5076184;28;20297;-64
2022/10/16 03:17:54;;;;;;;;;;;21.20;51.30;;;;;;5056765;28;19920;-64
2022/10/16 03:20:21;;;;;;;;;;;21.10;51.10;;;;;;5049214;28;19982;-64
2022/10/16 03:22:48;;;;;;;;;;;21.20;51.20;;;;;;5073952;28;19978;-64
2022/10/16 03:25:14;;;;;;;;;;;21.20;51.10;;;;;;5066068;28;19921;-64
2022/10/16 03:27:42;;;;;;;;;;;21.10;51.00;;;;;;5066120;28;19921;-64
2022/10/16 03:30:10;;;;;;;;;;;21.10;51.00;;;;;;5067087;28;19974;-64
2022/10/16 03:32:36;;;;;;;;;;;21.10;51.00;;;;;;5070012;28;19956;-64
2022/10/16 03:35:03;;;;;;;;;;;21.10;51.00;;;;;;5068565;28;19955;-65
2022/10/16 03:37:30;;;;;;;;;;;21.10;50.90;;;;;;5069127;28;19935;-64
2022/10/16 03:39:57;;;;;;;;;;;21.10;50.90;;;;;;5051334;28;19920;-64
2022/10/16 03:42:24;;;;;;;;;;;21.10;50.90;;;;;;5069291;28;19920;-64
2022/10/16 03:44:52;;;;;;;;;;;21.10;50.80;;;;;;5068313;28;19932;-64
2022/10/16 03:47:21;;;;;;;;;;;21.10;50.80;;;;;;5077699;28;19932;-64
2022/10/16 03:49:48;;;;;;;;;;;21.10;50.70;;;;;;5065101;28;19920;-64
2022/10/16 03:52:15;;;;;;;;;;;21.10;50.70;;;;;;5064968;28;19964;-64
2022/10/16 03:54:41;;;;;;;;;;;21.10;50.60;;;;;;5065848;28;20362;-63
2022/10/16 03:57:08;;;;;;;;;;;21.10;50.60;;;;;;5067471;28;20019;-64
2022/10/16 03:59:35;;;;;;;;;;;21.10;50.60;;;;;;5068200;28;20019;-64
2022/10/16 04:02:03;;;;;;;;;;;21.10;50.60;;;;;;5069365;28;20001;-64
2022/10/16 04:04:30;;;;;;;;;;;21.10;51.20;;;;;;5085372;28;20007;-64
2022/10/16 04:06:57;;;;;;;;;;;21.10;50.50;;;;;;5084851;28;19928;-64
2022/10/16 04:09:23;;;;;;;;;;;21.10;50.50;;;;;;5066570;28;19960;-64
2022/10/16 04:11:50;;;;;;;;;;;21.10;50.50;;;;;;5084501;28;20027;-64
2022/10/16 04:14:17;;;;;;;;;;;21.10;50.50;;;;;;5085708;28;19967;-64
2022/10/16 04:16:44;;;;;;;;;;;21.10;50.40;;;;;;5065322;28;19986;-64
2022/10/16 04:19:13;;;;;;;;;;;21.10;50.40;;;;;;5068141;28;20017;-64
2022/10/16 04:21:39;;;;;;;;;;;21.10;50.40;;;;;;5067969;28;19940;-64
2022/10/16 04:24:06;;;;;;;;;;;21.10;50.30;;;;;;5068650;28;20519;-64
2022/10/16 04:26:33;;;;;;;;;;;21.10;50.30;;;;;;5068379;28;19920;-64
2022/10/16 04:28:59;;;;;;;;;;;21.10;50.30;;;;;;5068102;28;19924;-64
2022/10/16 04:31:26;;;;;;;;;;;21.10;50.30;;;;;;5068774;28;19954;-65
2022/10/16 04:33:53;;;;;;;;;;;21.10;50.30;;;;;;5068259;28;19920;-64
2022/10/16 04:36:21;;;;;;;;;;;21.10;50.30;;;;;;5085139;28;19920;-65
2022/10/16 04:38:48;;;;;;;;;;;21.10;50.30;;;;;;5077009;28;19925;-64
2022/10/16 04:41:15;;;;;;;;;;;21.10;50.30;;;;;;5068526;28;19925;-64
2022/10/16 04:43:41;;;;;;;;;;;21.00;50.20;;;;;;5067759;28;19970;-64
2022/10/16 04:46:09;;;;;;;;;;;21.00;50.20;;;;;;5067880;28;20017;-64
2022/10/16 04:48:36;;;;;;;;;;;21.00;50.20;;;;;;5066181;28;19929;-64
2022/10/16 04:51:03;;;;;;;;;;;21.00;50.20;;;;;;5069701;28;19959;-64
2022/10/16 04:53:31;;;;;;;;;;;21.00;50.20;;;;;;5067640;28;20028;-64
2022/10/16 04:55:58;;;;;;;;;;;21.00;50.20;;;;;;5084671;28;19974;-64
2022/10/16 04:58:24;;;;;;;;;;;21.00;50.10;;;;;;5079883;28;19974;-64
2022/10/16 05:00:51;;;;;;;;;;;21.10;50.20;;;;;;5075005;28;19924;-64
2022/10/16 05:03:18;;;;;;;;;;;21.00;50.10;;;;;;5071891;28;20003;-64
2022/10/16 05:05:45;;;;;;;;;;;21.00;50.10;;;;;;5087943;28;19924;-65
2022/10/16 05:08:12;;;;;;;;;;;21.00;50.10;;;;;;5067318;28;19931;-64
2022/10/16 05:10:40;;;;;;;;;;;21.00;50.10;;;;;;5072116;28;20408;-64
2022/10/16 05:13:07;;;;;;;;;;;21.00;50.00;;;;;;5068289;28;20336;-64
2022/10/16 05:15:34;;;;;;;;;;;21.00;50.00;;;;;;5088686;28;20007;-65
2022/10/16 05:18:00;;;;;;;;;;;21.00;50.60;;;;;;5071466;28;19959;-64
2022/10/16 05:20:27;;;;;;;;;;;21.00;50.00;;;;;;5071539;28;20027;-64
2022/10/16 05:22:54;;;;;;;;;;;21.00;50.00;;;;;;5071149;28;20366;-64
2022/10/16 05:25:20;;;;;;;;;;;21.00;50.00;;;;;;5071676;28;20019;-64
2022/10/16 05:27:49;;;;;;;;;;;21.00;50.00;;;;;;5087721;28;19925;-64
2022/10/16 05:30:16;;;;;;;;;;;21.00;50.00;;;;;;5070725;28;19982;-64
2022/10/16 05:32:42;;;;;;;;;;;21.00;50.00;;;;;;5071279;28;19959;-64
2022/10/16 05:35:09;;;;;;;;;;;21.00;50.00;;;;;;5088178;28;19967;-64
2022/10/16 05:37:36;;;;;;;;;;;21.00;50.00;;;;;;5075276;28;19928;-64
2022/10/16 05:40:03;;;;;;;;;;;21.00;50.00;;;;;;5071123;28;19974;-64
2022/10/16 05:42:30;;;;;;;;;;;21.00;50.10;;;;;;5072703;28;19981;-64
2022/10/16 05:44:58;;;;;;;;;;;21.00;50.00;;;;;;5070627;28;19921;-64
2022/10/16 05:47:25;;;;;;;;;;;21.00;50.10;;;;;;5072017;28;20010;-64
2022/10/16 05:49:52;;;;;;;;;;;21.00;50.10;;;;;;5071899;28;19967;-64
2022/10/16 05:52:18;;;;;;;;;;;21.00;50.10;;;;;;5071235;28;19932;-64
2022/10/16 05:54:45;;;;;;;;;;;21.00;50.00;;;;;;5054992;28;20032;-64
2022/10/16 05:57:12;;;;;;;;;;;21.00;50.10;;;;;;5087818;28;19921;-64
2022/10/16 05:59:38;;;;;;;;;;;21.00;50.10;;;;;;5086799;28;20329;-65
2022/10/16 06:02:07;;;;;;;;;;;21.00;50.10;;;;;;5071186;28;19978;-64
2022/10/16 06:04:33;;;;;;;;;;;21.00;50.10;;;;;;5062259;28;20020;-64
2022/10/16 06:07:01;;;;;;;;;;;21.00;50.10;;;;;;5065868;28;19928;-64
2022/10/16 06:09:28;;;;;;;;;;;21.00;50.10;;;;;;5077125;28;20012;-64
2022/10/16 06:11:54;;;;;;;;;;;21.00;50.10;;;;;;5064300;28;19921;-64
2022/10/16 06:14:21;;;;;;;;;;;21.00;50.20;;;;;;5079827;28;19925;-65
2022/10/16 06:16:48;;;;;;;;;;;21.00;50.10;;;;;;5065828;28;19988;-64
2022/10/16 06:19:16;;;;;;;;;;;21.00;50.10;;;;;;5067857;28;19951;-64
2022/10/16 06:21:42;;;;;;;;;;;21.00;50.10;;;;;;5080313;28;20045;-64
2022/10/16 06:24:09;;;;;;;;;;;21.00;50.10;;;;;;5078558;28;19959;-64
2022/10/16 06:26:36;;;;;;;;;;;21.00;50.40;;;;;;5067093;28;19921;-64
2022/10/16 06:29:02;;;;;;;;;;;21.00;50.10;;;;;;5067012;28;19924;-65
2022/10/16 06:31:30;;;;;;;;;;;21.00;50.10;;;;;;5067285;28;20386;-64
2022/10/16 06:33:57;;;;;;;;;;;21.00;50.10;;;;;;5068332;28;19935;-64
2022/10/16 06:36:25;;;;;;;;;;;21.00;50.10;;;;;;5064024;28;19927;-64
2022/10/16 06:38:52;;;;;;;;;;;21.00;50.10;;;;;;5067878;28;19956;-64
2022/10/16 06:41:19;;;;;;;;;;;21.00;50.10;;;;;;5066306;28;20378;-63
2022/10/16 06:43:46;;;;;;;;;;;21.00;50.10;;;;;;5080451;28;19946;-64
2022/10/16 06:46:13;;;;;;;;;;;21.00;50.10;;;;;;5066531;28;19925;-64
2022/10/16 06:48:40;;;;;;;;;;;21.00;50.10;;;;;;5064542;28;19964;-64
2022/10/16 06:51:07;;;;;;;;;;;21.00;50.20;;;;;;5066599;28;19920;-64
2022/10/16 06:53:35;;;;;;;;;;;21.00;50.10;;;;;;5067185;28;20010;-64
2022/10/16 06:56:07;;;;;;;;;;;21.00;50.10;;;;;;5062844;28;19962;-64
2022/10/16 06:58:34;;;;;;;;;;;21.00;50.10;;;;;;5081562;28;20031;-64
2022/10/16 07:01:00;;;;;;;;;;;21.00;50.10;;;;;;5076835;28;19975;-64
2022/10/16 07:03:27;;;;;;;;;;;21.00;50.10;;;;;;5066033;28;20020;-64
2022/10/16 07:05:54;;;;;;;;;;;21.00;50.20;;;;;;5077219;28;19968;-64
2022/10/16 07:08:20;;;;;;;;;;;21.00;50.20;;;;;;5083352;28;20506;-64
2022/10/16 07:10:48;;;;;;;;;;;21.00;50.20;;;;;;5065284;28;19928;-64
2022/10/16 07:13:15;;;;;;;;;;;21.00;50.20;;;;;;5082930;28;19932;-64
2022/10/16 07:15:42;;;;;;;;;;;21.00;50.20;;;;;;5061944;28;19952;-64
2022/10/16 07:18:08;;;;;;;;;;;21.00;50.20;;;;;;5079558;28;19955;-64
2022/10/16 07:20:35;;;;;;;;;;;21.00;50.20;;;;;;5059555;28;20027;-64
2022/10/16 07:23:02;;;;;;;;;;;21.00;50.20;;;;;;5067956;28;19929;-64
2022/10/16 07:25:29;;;;;;;;;;;21.00;50.20;;;;;;5085896;28;20405;-64
2022/10/16 07:27:57;;;;;;;;;;;21.00;50.20;;;;;;5073100;28;19959;-65
2022/10/16 07:30:24;;;;;;;;;;;21.00;50.30;;;;;;5069933;28;19920;-64
2022/10/16 07:32:50;;;;;;;;;;;21.00;50.30;;;;;;5086425;28;19920;-64
2022/10/16 07:35:17;;;;;;;;;;;21.00;50.30;;;;;;5068500;28;20167;-65
2022/10/16 07:37:45;;;;;;;;;;;21.00;50.30;;;;;;5085057;28;19921;-64
2022/10/16 07:40:11;;;;;;;;;;;21.00;50.30;;;;;;5069195;28;20016;-64
2022/10/16 07:42:38;;;;;;;;;;;21.00;50.30;;;;;;5067344;28;19921;-64
2022/10/16 07:45:07;;;;;;;;;;;21.00;50.30;;;;;;5053094;28;19956;-64
2022/10/16 07:47:34;;;;;;;;;;;21.00;50.30;;;;;;5076545;28;20015;-64
2022/10/16 07:50:01;;;;;;;;;;;21.00;50.30;;;;;;5084884;28;19987;-64
2022/10/16 07:52:27;;;;;;;;;;;21.00;50.40;;;;;;5086029;28;20386;-64
2022/10/16 07:54:54;;;;;;;;;;;21.00;50.40;;;;;;5068040;28;19960;-64
2022/10/16 07:57:21;;;;;;;;;;;21.10;50.50;;;;;;5067910;28;19927;-64
2022/10/16 07:59:48;;;;;;;;;;;21.10;50.40;;;;;;5080239;28;19920;-65
2022/10/16 08:02:16;;;;;;;;;;;21.10;50.40;;;;;;5077317;28;20019;-64
2022/10/16 08:04:42;;;;;;;;;;;21.10;50.40;;;;;;5061264;28;19968;-64
2022/10/16 08:07:09;;;;;;;;;;;21.10;50.50;;;;;;5063547;28;19939;-64
2022/10/16 08:09:36;;;;;;;;;;;21.10;50.50;;;;;;5078756;28;20008;-64
2022/10/16 08:12:04;;;;;;;;;;;21.10;50.50;;;;;;5067224;28;19946;-64
2022/10/16 08:14:30;;;;;;;;;;;21.10;50.50;;;;;;5068675;28;19960;-64
2022/10/16 08:16:57;;;;;;;;;;;21.10;50.50;;;;;;5068020;28;19920;-64
2022/10/16 08:19:25;;;;;;;;;;;21.10;50.60;;;;;;5061815;28;20010;-64
2022/10/16 08:21:51;;;;;;;;;;;21.10;50.50;;;;;;5067632;28;19920;-64
2022/10/16 08:24:18;;;;;;;;;;;21.10;50.60;;;;;;5058292;28;20001;-64
2022/10/16 08:26:45;;;;;;;;;;;21.10;50.60;;;;;;5065576;28;20393;-64
2022/10/16 08:29:12;;;;;;;;;;;21.10;50.60;;;;;;5063539;28;19927;-65
2022/10/16 08:31:38;;;;;;;;;;;21.10;50.60;;;;;;5049711;28;19920;-64
2022/10/16 08:34:05;;;;;;;;;;;21.10;50.70;;;;;;5066747;28;19959;-64
2022/10/16 08:36:33;;;;;;;;;;;21.10;51.30;;;;;;5075774;28;19932;-74
2022/10/16 08:39:00;;;;;;;;;;;21.10;50.80;;;;;;5072895;28;19924;-74
2022/10/16 08:41:45;;;;;;;;;;;21.10;50.90;;;;;;5096847;28;20121;-76
2022/10/16 08:44:20;;;;;;;;;;;21.10;50.90;;;;;;5092286;28;19992;-77
2022/10/16 08:46:47;;;;;;;;;;;21.10;50.90;;;;;;5062894;28;19947;-76
2022/10/16 08:49:14;;;;;;;;;;;21.10;51.10;;;;;;5059666;28;19952;-76
2022/10/16 08:51:42;;;;;;;;;;;21.00;51.10;;;;;;5079528;28;19920;-76
2022/10/16 08:54:14;;;;;;;;;;;21.00;51.20;;;;;;5075981;28;19955;-75
2022/10/16 08:56:40;;;;;;;;;;;21.00;51.20;;;;;;5071772;28;19960;-76
2022/10/16 08:59:07;;;;;;;;;;;21.00;51.20;;;;;;5078027;28;19921;-75
2022/10/16 09:01:36;;;;;;;;;;;21.00;51.30;;;;;;5074957;28;19963;-75
2022/10/16 09:04:17;;;;;;;;;;;21.00;51.30;;;;;;5093974;28;19924;-76
2022/10/16 09:06:46;;;;;;;;;;;21.00;51.30;;;;;;5093462;28;19932;-75
2022/10/16 09:09:26;;;;;;;;;;;21.00;51.40;;;;;;5075532;28;19924;-76
2022/10/16 09:11:54;;;;;;;;;;;21.00;51.40;;;;;;5070674;28;19962;-76
2022/10/16 09:14:31;;;;;;;;;;;21.00;51.40;;;;;;5095416;28;19925;-77
2022/10/16 09:16:58;;;;;;;;;;;21.00;51.40;;;;;;5075759;28;19959;-76
2022/10/16 09:19:26;;;;;;;;;;;21.00;51.40;;;;;;5095277;28;19920;-75
2022/10/16 09:21:55;;;;;;;;;;;21.00;51.40;;;;;;5074815;28;19929;-76
2022/10/16 09:24:23;;;;;;;;;;;21.00;51.40;;;;;;5074830;28;19974;-77
2022/10/16 09:26:50;;;;;;;;;;;21.00;51.40;;;;;;5074714;28;19920;-76
2022/10/16 09:29:19;;;;;;;;;;;21.00;51.50;;;;;;5077705;28;19932;-77
2022/10/16 09:31:46;;;;;;;;;;;21.00;51.40;;;;;;5076114;28;19981;-77
2022/10/16 09:34:18;;;;;;;;;;;21.00;51.50;;;;;;5075054;28;19925;-68
2022/10/16 09:36:45;;;;;;;;;;;21.00;51.50;;;;;;5076866;28;19924;-76
2022/10/16 09:39:13;;;;;;;;;;;21.00;51.40;;;;;;5074706;28;19931;-77
2022/10/16 09:41:41;;;;;;;;;;;21.00;51.40;;;;;;5089226;28;19924;-76
2022/10/16 09:44:15;;;;;;;;;;;21.00;51.30;;;;;;5092315;28;19928;-75
2022/10/16 09:46:42;;;;;;;;;;;21.00;51.30;;;;;;5072383;28;19920;-76
2022/10/16 09:49:19;;;;;;;;;;;21.00;51.20;;;;;;5093698;28;19946;-76
2022/10/16 09:51:47;;;;;;;;;;;21.00;51.20;;;;;;5079207;28;19924;-70
2022/10/16 09:54:16;;;;;;;;;;;21.00;51.20;;;;;;5074640;28;19927;-76
2022/10/16 09:56:45;;;;;;;;;;;21.00;51.20;;;;;;5083614;28;19963;-81
2022/10/16 09:59:12;;;;;;;;;;;21.00;51.20;;;;;;5086886;28;19972;-77
2022/10/16 10:01:40;;;;;;;;;;;21.00;51.10;;;;;;5090403;28;19947;-77
2022/10/16 10:04:07;;;;;;;;;;;21.00;51.10;;;;;;5090650;28;19989;-73
2022/10/16 10:06:34;;;;;;;;;;;21.00;51.20;;;;;;5076013;28;19947;-74
2022/10/16 10:09:02;;;;;;;;;;;21.00;51.20;;;;;;5094994;28;19913;-75
2022/10/16 10:11:40;;;;;;;;;;;21.00;51.20;;;;;;5101945;28;19913;-78
2022/10/16 10:14:07;;;;;;;;;;;21.00;51.20;;;;;;5084848;28;19927;-76
2022/10/16 10:16:34;;;;;;;;;;;21.00;51.70;;;;;;5086895;28;19924;-77
2022/10/16 10:19:00;;;;;;;;;;;21.00;51.20;;;;;;5085359;28;19936;-74
2022/10/16 10:21:27;;;;;;;;;;;21.00;51.10;;;;;;5079364;28;20316;-78
2022/10/16 10:23:56;;;;;;;;;;;21.00;51.10;;;;;;5086416;28;19924;-75
2022/10/16 10:26:24;;;;;;;;;;;21.00;51.20;;;;;;5089673;28;19920;-78
2022/10/16 10:28:54;;;;;;;;;;;21.00;51.20;;;;;;5081034;28;19951;-76
2022/10/16 10:31:23;;;;;;;;;;;21.00;51.20;;;;;;5098724;28;19921;-76
2022/10/16 10:33:51;;;;;;;;;;;21.00;51.20;;;;;;5084891;28;19920;-77
2022/10/16 10:36:21;;;;;;;;;;;21.00;51.20;;;;;;5099124;28;19954;-76
2022/10/16 10:38:52;;;;;;;;;;;21.00;51.20;;;;;;5078811;28;19925;-77
2022/10/16 10:41:35;;;;;;;;;;;21.10;51.20;;;;;;5087305;28;19934;-76
2022/10/16 10:44:04;;;;;;;;;;;21.00;51.10;;;;;;5069786;28;19924;-75
2022/10/16 10:46:32;;;;;;;;;;;21.10;51.20;;;;;;5095835;28;19947;-77
2022/10/16 10:49:03;;;;;;;;;;;21.00;51.10;;;;;;5089615;28;19928;-78
2022/10/16 10:51:31;;;;;;;;;;;21.10;51.10;;;;;;5091501;28;20249;-77
2022/10/16 10:54:00;;;;;;;;;;;21.10;51.00;;;;;;5088446;28;19977;-77
2022/10/16 10:56:35;;;;;;;;;;;21.10;51.00;;;;;;5078976;28;19913;-74
2022/10/16 10:59:06;;;;;;;;;;;21.10;50.90;;;;;;5080644;28;19943;-73
2022/10/16 11:01:34;;;;;;;;;;;21.10;50.90;;;;;;5098979;28;19931;-76
2022/10/16 11:04:06;;;;;;;;;;;21.10;50.90;;;;;;5085199;28;19944;-76
2022/10/16 11:06:33;;;;;;;;;;;21.10;50.90;;;;;;5089837;28;19943;-75
2022/10/16 11:09:04;;;;;;;;;;;21.10;50.90;;;;;;5084576;28;19920;-75
2022/10/16 11:11:31;;;;;;;;;;;21.10;50.90;;;;;;5103313;28;19921;-77
2022/10/16 11:13:59;;;;;;;;;;;21.10;50.90;;;;;;5094468;28;19947;-77
2022/10/16 11:16:28;;;;;;;;;;;21.10;50.80;;;;;;5086581;28;19978;-74
2022/10/16 11:18:56;;;;;;;;;;;21.10;51.40;;;;;;5080956;28;19947;-74
2022/10/16 11:21:23;;;;;;;;;;;21.10;50.80;;;;;;5074927;28;19920;-75
2022/10/16 11:23:51;;;;;;;;;;;21.10;50.80;;;;;;5085119;28;19917;-76
2022/10/16 11:26:19;;;;;;;;;;;21.10;50.80;;;;;;5074013;28;19933;-75
2022/10/16 11:28:48;;;;;;;;;;;21.10;50.80;;;;;;5100017;28;20713;-74
2022/10/16 11:31:15;;;;;;;;;;;21.10;50.80;;;;;;5081086;28;19934;-74
2022/10/16 11:33:45;;;;;;;;;;;21.10;50.70;;;;;;5077038;28;19943;-75
2022/10/16 11:36:13;;;;;;;;;;;21.10;50.70;;;;;;5073337;28;19921;-76
2022/10/16 11:38:41;;;;;;;;;;;21.10;50.70;;;;;;5082225;28;20251;-76
2022/10/16 11:41:11;;;;;;;;;;;21.10;50.70;;;;;;5074016;28;19939;-75
2022/10/16 11:43:39;;;;;;;;;;;21.10;50.70;;;;;;5092077;28;19929;-74
2022/10/16 11:46:06;;;;;;;;;;;21.10;50.70;;;;;;5102269;28;19924;-73
2022/10/16 11:48:33;;;;;;;;;;;21.10;50.60;;;;;;5086843;28;20215;-73
2022/10/16 11:51:03;;;;;;;;;;;21.10;50.60;;;;;;5080663;28;19928;-74
2022/10/16 11:53:35;;;;;;;;;;;21.10;50.60;;;;;;5085786;28;19920;-75
2022/10/16 11:56:02;;;;;;;;;;;21.10;50.60;;;;;;5085019;28;19920;-74
2022/10/16 11:58:32;;;;;;;;;;;21.10;50.60;;;;;;5078788;28;19970;-78
2022/10/16 12:01:00;;;;;;;;;;;21.10;50.50;;;;;;5078516;28;19970;-74
2022/10/16 12:03:28;;;;;;;;;;;21.10;50.50;;;;;;5100259;28;19920;-73
2022/10/16 12:06:20;;;;;;;;;;;21.10;50.50;;;;;;5084428;28;19924;-74
2022/10/16 12:08:48;;;;;;;;;;;21.10;50.50;;;;;;5060738;28;19974;-77
2022/10/16 12:11:25;;;;;;;;;;;21.10;50.50;;;;;;5085678;28;20370;-73
2022/10/16 12:13:51;;;;;;;;;;;21.10;50.40;;;;;;5075423;28;19956;-76
2022/10/16 12:16:22;;;;;;;;;;;21.10;50.40;;;;;;5070994;28;19927;-72
2022/10/16 12:18:49;;;;;;;;;;;21.10;50.40;;;;;;5059625;28;19933;-72
2022/10/16 12:21:18;;;;;;;;;;;21.10;50.40;;;;;;5065813;28;19928;-72
2022/10/16 12:23:59;;;;;;;;;;;21.20;50.50;;;;;;5061018;28;19928;-72
2022/10/16 12:26:26;;;;;;;;;;;21.20;50.50;;;;;;5086185;28;20235;-71
2022/10/16 12:28:53;;;;;;;;;;;21.20;50.50;;;;;;5078356;28;19921;-71
2022/10/16 12:31:20;;;;;;;;;;;21.20;50.50;;;;;;5060496;28;19924;-71
2022/10/16 12:33:54;;;;;;;;;;;21.20;50.50;;;;;;5062450;28;19960;-72
2022/10/16 12:36:27;;;;;;;;;;;21.20;50.50;;;;;;5066802;28;19971;-71
2022/10/16 12:38:55;;;;;;;;;;;21.20;50.40;;;;;;5069857;28;19928;-72
2022/10/16 12:41:25;;;;;;;;;;;21.20;50.40;;;;;;5082951;28;20013;-71
2022/10/16 12:43:52;;;;;;;;;;;21.20;50.20;;;;;;5068255;28;19967;-71
2022/10/16 12:46:23;;;;;;;;;;;21.20;50.00;;;;;;5067043;28;19920;-72
2022/10/16 12:48:50;;;;;;;;;;;21.20;49.90;;;;;;5067599;28;19927;-72
2022/10/16 12:51:24;;;;;;;;;;;21.20;49.90;;;;;;5076028;28;19960;-71
2022/10/16 12:54:01;;;;;;;;;;;21.10;49.80;;;;;;5074392;28;19925;-72
2022/10/16 12:56:31;;;;;;;;;;;21.10;49.70;;;;;;5068120;28;20006;-74
2022/10/16 12:59:01;;;;;;;;;;;21.10;49.70;;;;;;5069442;28;19975;-75
2022/10/16 13:01:40;;;;;;;;;;;21.10;49.80;;;;;;5065488;28;19920;-73
2022/10/16 13:04:26;;;;;;;;;;;21.10;49.80;;;;;;5048375;28;19928;-69
2022/10/16 13:06:54;;;;;;;;;;;21.10;49.70;;;;;;5061600;28;19920;-70
2022/10/16 13:09:26;;;;;;;;;;;21.10;49.60;;;;;;5073426;28;20436;-72
2022/10/16 13:12:06;;;;;;;;;;;21.10;49.60;;;;;;5058543;28;20003;-68
2022/10/16 13:14:36;;;;;;;;;;;21.10;49.50;;;;;;5068960;28;19976;-72
2022/10/16 13:17:05;;;;;;;;;;;21.10;49.50;;;;;;5068621;28;20036;-70
2022/10/16 13:19:34;;;;;;;;;;;21.10;49.40;;;;;;5085829;28;19974;-72
2022/10/16 13:22:02;;;;;;;;;;;21.10;49.40;;;;;;5069976;28;19947;-69
2022/10/16 13:24:35;;;;;;;;;;;21.10;49.30;;;;;;5072081;28;19931;-71
2022/10/16 13:27:02;;;;;;;;;;;21.10;49.30;;;;;;5072281;28;19959;-70
2022/10/16 13:29:30;;;;;;;;;;;21.10;49.30;;;;;;5073492;28;19920;-69
2022/10/16 13:31:57;;;;;;;;;;;21.10;49.20;;;;;;5060356;28;20010;-72
2022/10/16 13:34:24;;;;;;;;;;;21.10;49.20;;;;;;5058295;28;19936;-70
2022/10/16 13:36:51;;;;;;;;;;;21.10;49.10;;;;;;5072248;28;20021;-72
2022/10/16 13:39:21;;;;;;;;;;;21.10;49.10;;;;;;5071084;28;19960;-71
2022/10/16 13:41:59;;;;;;;;;;;21.10;49.10;;;;;;5073486;28;19920;-72
2022/10/16 13:44:26;;;;;;;;;;;21.10;49.00;;;;;;5088909;28;19920;-68
2022/10/16 13:46:58;;;;;;;;;;;21.10;49.00;;;;;;5087439;28;19924;-71
2022/10/16 13:49:25;;;;;;;;;;;21.10;49.00;;;;;;5072195;28;19971;-71
2022/10/16 13:51:55;;;;;;;;;;;21.00;48.90;;;;;;5088914;28;19920;-71
2022/10/16 13:54:22;;;;;;;;;;;21.10;49.60;;;;;;5073282;28;20002;-71
2022/10/16 13:56:49;;;;;;;;;;;21.10;48.90;;;;;;5070700;28;19920;-70
2022/10/16 13:59:28;;;;;;;;;;;21.00;48.80;;;;;;5068549;28;19921;-70
2022/10/16 14:01:55;;;;;;;;;;;21.10;48.90;;;;;;5062345;28;19929;-69
2022/10/16 14:04:22;;;;;;;;;;;21.10;49.00;;;;;;5072100;28;19975;-70
2022/10/16 14:06:50;;;;;;;;;;;21.10;49.10;;;;;;5072292;28;19925;-71
2022/10/16 14:09:19;;;;;;;;;;;21.10;49.10;;;;;;5073512;28;19930;-70
2022/10/16 14:11:47;;;;;;;;;;;21.10;49.10;;;;;;5071826;28;19974;-70
2022/10/16 14:14:14;;;;;;;;;;;21.10;49.10;;;;;;5072233;28;19920;-71
2022/10/16 14:16:43;;;;;;;;;;;21.10;49.00;;;;;;5072736;28;19924;-71
2022/10/16 14:19:14;;;;;;;;;;;21.10;49.00;;;;;;5088577;28;20011;-70
2022/10/16 14:21:41;;;;;;;;;;;21.10;49.10;;;;;;5071901;28;19928;-71